Christina O — C6FN7 — position and weather

sailwx.info

Track history (hours):
 
Tides and Currents Weather Stations Pressure Air Temp Water Temp Dewpoint Dewpoint Depression Visibility Wind Speed Wind Dir Waves Ship Positions

Christina O

Operator: V Ships Leisure SAM

Last reported at 2014-Jul-23 07:33 UTC. Time now 2014-Jul-23 07:48 UTC.
Position N 59°56' E 030°16'.

Length 186 m; draft 6.1 m.

Type: Ship. MMSI: 308322000.

Date/timePositionNaut miles runAvg speedWind from/ knotsBaromVisibWave heightAir tempDewpointWater temp
2014-Jul-23 07:33N 59°56' E 030°16'0 0.0
2014-Jul-23 06:33N 59°56' E 030°16'0 0.0
2014-Jul-23 05:24N 59°56' E 030°16'0 0.0
2014-Jul-23 04:33N 59°56' E 030°16'0 0.0
2014-Jul-23 03:33N 59°56' E 030°16'0 0.0
2014-Jul-23 02:33N 59°56' E 030°16'0 0.0
2014-Jul-23 01:33N 59°56' E 030°16'0 0.0
2014-Jul-23 00:30N 59°56' E 030°16'0 0.0
2014-Jul-22 23:33N 59°56' E 030°16'0 0.0
2014-Jul-22 22:33N 59°56' E 030°16'0 0.0
2014-Jul-22 21:33N 59°56' E 030°16'0 0.0
2014-Jul-22 20:33N 59°56' E 030°16'0 0.0
2014-Jul-22 19:30N 59°56' E 030°16'0 0.0
2014-Jul-22 18:33N 59°56' E 030°16'0 0.0
2014-Jul-22 17:33N 59°56' E 030°16'0 0.0
2014-Jul-22 16:33N 59°56' E 030°16'0 0.0
2014-Jul-22 15:33N 59°56' E 030°16'0 0.0
2014-Jul-22 14:33N 59°56' E 030°16'0 0.0
2014-Jul-22 13:33N 59°56' E 030°16'0 0.0
2014-Jul-22 12:33N 59°56' E 030°16'0 0.0
2014-Jul-22 11:33N 59°56' E 030°16'0 0.0
2014-Jul-22 10:33N 59°56' E 030°16'0 0.0
2014-Jul-22 09:33N 59°56' E 030°16'0 0.0
2014-Jul-22 08:33N 59°56' E 030°16'0 0.0
2014-Jul-22 07:33N 59°56' E 030°16'0 0.0
2014-Jul-22 06:32N 59°56' E 030°16'0 0.0
2014-Jul-22 05:32N 59°56' E 030°16'0 0.0
2014-Jul-22 04:32N 59°56' E 030°16'1 1.1
2014-Jul-22 03:33N 59°55' E 030°15'6 5.7
2014-Jul-22 02:31N 59°55' E 030°04'7414.1
2014-Jul-21 21:16N 60°08' E 027°38'1216.9
2014-Jul-21 20:33N 60°02' E 027°18'416.6
2014-Jul-21 20:18N 59°60' E 027°11'1216.0
2014-Jul-21 19:33N 59°59' E 026°47'1817.0
2014-Jul-21 18:31N 59°56' E 026°12'1917.0
2014-Jul-21 17:23N 59°51' E 025°35'3217.1
2014-Jul-21 15:32N 59°45' E 024°33'1717.1
2014-Jul-21 14:32N 59°40' E 024°01'1616.6
2014-Jul-21 13:33N 59°34' E 023°31'1616.5
2014-Jul-21 12:33N 59°29' E 023°00'1616.4
2014-Jul-21 11:33N 59°22' E 022°31'1716.6
2014-Jul-21 10:33N 59°12' E 022°05'1616.3
2014-Jul-21 09:33N 58°60' E 021°43'1716.5
2014-Jul-21 08:33N 58°45' E 021°32'1716.9
2014-Jul-21 07:33N 58°29' E 021°21'1716.9
2014-Jul-21 06:33N 58°13' E 021°09'5516.8
2014-Jul-21 03:18N 57°22' E 020°35'6517.2
2014-Jul-20 23:33N 56°20' E 019°57'2617.0
2014-Jul-20 22:03N 55°56' E 019°43'1316.8
2014-Jul-20 21:18N 55°44' E 019°36'1216.7
2014-Jul-20 20:33N 55°32' E 019°28'1716.7
2014-Jul-20 19:33N 55°17' E 019°19'1716.9
2014-Jul-20 18:33N 55°00' E 019°10'1716.9
2014-Jul-20 17:33N 54°44' E 019°00'1616.4
2014-Jul-20 16:33N 54°30' E 018°46'7 6.6
2014-Jul-20 15:31N 54°24' E 018°40'0 0.0
2014-Jul-20 14:31N 54°24' E 018°40'0 0.0
2014-Jul-20 13:31N 54°24' E 018°40'0 0.0
2014-Jul-20 12:31N 54°24' E 018°40'0 0.0
2014-Jul-20 11:31N 54°24' E 018°40'0 0.0
2014-Jul-20 10:28N 54°24' E 018°40'0 0.0
2014-Jul-20 09:31N 54°24' E 018°40'0 0.0
2014-Jul-20 08:31N 54°24' E 018°40'0 0.0
2014-Jul-20 07:28N 54°24' E 018°40'0 0.0
2014-Jul-20 06:31N 54°24' E 018°40'1 1.5
2014-Jul-20 05:34N 54°23' E 018°40'5 4.8
2014-Jul-20 04:34N 54°28' E 018°41'0 0.1
2014-Jul-20 03:31N 54°28' E 018°41'0 0.0
2014-Jul-20 02:31N 54°28' E 018°41'0 0.0
2014-Jul-20 01:31N 54°28' E 018°41'0 0.0
2014-Jul-20 00:31N 54°28' E 018°41'0 0.0
2014-Jul-19 23:31N 54°28' E 018°41'0 0.0
2014-Jul-19 22:31N 54°28' E 018°41'0 0.0
2014-Jul-19 21:31N 54°28' E 018°41'0 0.0
2014-Jul-19 20:31N 54°28' E 018°41'0 0.0
2014-Jul-19 19:31N 54°28' E 018°41'5 4.8
2014-Jul-19 18:33N 54°31' E 018°46'1110.7
2014-Jul-19 17:33N 54°40' E 018°56'9 9.4
2014-Jul-19 16:33N 54°49' E 018°52'1212.1
2014-Jul-19 15:33N 54°56' E 018°35'1413.7
2014-Jul-19 14:33N 54°55' E 018°11'1413.8
2014-Jul-19 13:33N 54°54' E 017°47'1313.4
2014-Jul-19 12:33N 54°53' E 017°24'1313.2
2014-Jul-19 11:33N 54°50' E 017°01'1313.3
2014-Jul-19 10:33N 54°47' E 016°39'1413.4
2014-Jul-19 09:32N 54°45' E 016°15'1313.4
2014-Jul-19 08:33N 54°43' E 015°53'1413.5
2014-Jul-19 07:33N 54°41' E 015°30'1413.6
2014-Jul-19 06:33N 54°39' E 015°06'1313.5
2014-Jul-19 05:33N 54°37' E 014°43'1313.2
2014-Jul-19 04:33N 54°37' E 014°21'1413.5
2014-Jul-19 03:33N 54°41' E 013°58'1313.4
2014-Jul-19 02:33N 54°45' E 013°36'1313.2
2014-Jul-19 01:33N 54°44' E 013°13'1313.4
2014-Jul-19 00:34N 54°41' E 012°50'1313.4
2014-Jul-18 23:34N 54°38' E 012°28'1312.9
2014-Jul-18 22:34N 54°28' E 012°15'1413.9
2014-Jul-18 21:33N 54°15' E 012°05'5 4.9
2014-Jul-18 20:31N 54°10' E 012°06'0 0.0
2014-Jul-18 19:31N 54°10' E 012°06'0 0.0
2014-Jul-18 18:31N 54°10' E 012°06'0 0.0
2014-Jul-18 17:31N 54°10' E 012°06'0 0.0
2014-Jul-18 16:33N 54°10' E 012°06'8 7.8
2014-Jul-18 15:33N 54°18' E 012°00'1212.1
2014-Jul-18 14:33N 54°28' E 012°10'1515.2
2014-Jul-18 13:33N 54°42' E 012°22'1615.5
2014-Jul-18 12:33N 54°54' E 012°40'1515.3
2014-Jul-18 11:33N 55°09' E 012°39'1515.1
2014-Jul-18 10:34N 55°24' E 012°40'1313.2
2014-Jul-18 09:33N 55°37' E 012°42'6 5.9
2014-Jul-18 08:33N 55°42' E 012°36'0 0.0
2014-Jul-18 07:31N 55°42' E 012°36'0 0.0
2014-Jul-18 06:31N 55°42' E 012°36'0 0.0
2014-Jul-18 05:31N 55°42' E 012°36'0 0.1
2014-Jul-18 04:33N 55°42' E 012°36'6 5.6
2014-Jul-18 03:33N 55°37' E 012°42'1313.5
2014-Jul-18 02:34N 55°24' E 012°41'1211.8
2014-Jul-18 01:33N 55°16' E 012°57'1514.6
2014-Jul-18 00:34N 55°15' E 013°22'1514.7
2014-Jul-17 23:34N 55°14' E 013°48'1514.8
2014-Jul-17 22:33N 55°14' E 014°14'1514.6
2014-Jul-17 21:33N 55°25' E 014°31'1414.4
2014-Jul-17 20:33N 55°33' E 014°52'1414.4
2014-Jul-17 19:34N 55°40' E 015°14'1514.6
2014-Jul-17 18:33N 55°47' E 015°37'1514.7
2014-Jul-17 17:34N 55°55' E 015°59'1514.7
2014-Jul-17 16:34N 56°02' E 016°22'6514.5
2014-Jul-17 12:05N 56°40' E 017°56'2314.5
2014-Jul-17 10:29N 56°55' E 018°29'1714.5
2014-Jul-17 09:18N 57°09' E 018°48'1314.6
2014-Jul-17 08:25N 57°19' E 019°02'1314.5
2014-Jul-17 07:33N 57°29' E 019°16'1414.4
2014-Jul-17 06:33N 57°40' E 019°33'1414.5
2014-Jul-17 05:33N 57°52' E 019°49'14614.5
2014-Jul-16 19:29N 59°36' E 023°07'1414.6
2014-Jul-16 18:33N 59°40' E 023°32'1514.8
2014-Jul-16 17:33N 59°44' E 024°00'1514.6
2014-Jul-16 16:31N 59°49' E 024°29'1514.7
2014-Jul-16 15:29N 59°59' E 024°52'1112.3
2014-Jul-16 14:33N 60°10' E 024°58'0 0.4
2014-Jul-16 13:31N 60°10' E 024°58'0 0.0
2014-Jul-16 12:28N 60°10' E 024°58'0 0.0
2014-Jul-16 11:28N 60°10' E 024°58'0 0.0
2014-Jul-16 10:31N 60°10' E 024°58'0 0.0
2014-Jul-16 09:34N 60°10' E 024°58'0 0.0
2014-Jul-16 08:34N 60°10' E 024°58'0 0.0
2014-Jul-16 07:33N 60°10' E 024°58'0 0.0
2014-Jul-16 06:33N 60°10' E 024°58'0 0.0
2014-Jul-16 05:33N 60°10' E 024°58'0 0.1
2014-Jul-16 04:33N 60°10' E 024°58'8 8.1
2014-Jul-16 03:33N 60°02' E 024°58'1212.1
2014-Jul-16 02:32N 59°57' E 025°20'1612.8
2014-Jul-16 01:19N 59°56' E 025°52'1013.4
2014-Jul-16 00:33N 59°59' E 026°11'1313.5
2014-Jul-15 23:34N 60°01' E 026°38'1513.1
2014-Jul-15 22:24N 60°01' E 027°08'1213.7
2014-Jul-15 21:34N 60°07' E 027°28'1313.2
2014-Jul-15 20:33N 60°11' E 027°53'6813.0
2014-Jul-15 15:20N 59°54' E 030°05'5 6.3
2014-Jul-15 14:33N 59°55' E 030°14'2 1.8
2014-Jul-15 13:31N 59°56' E 030°17'0 0.0
2014-Jul-15 12:31N 59°56' E 030°17'0 0.0
2014-Jul-15 11:31N 59°56' E 030°17'0 0.0
2014-Jul-15 10:31N 59°56' E 030°17'0 0.0
2014-Jul-15 09:31N 59°56' E 030°17'0 0.0
2014-Jul-15 08:31N 59°56' E 030°17'0 0.0
2014-Jul-15 07:31N 59°56' E 030°17'0 0.0
2014-Jul-15 06:31N 59°56' E 030°17'0 0.0
2014-Jul-15 05:31N 59°56' E 030°17'0 0.0
2014-Jul-15 04:31N 59°56' E 030°17'0 0.0
2014-Jul-15 03:28N 59°56' E 030°17'0 0.0
2014-Jul-15 02:31N 59°56' E 030°17'0 0.0
2014-Jul-15 01:31N 59°56' E 030°17'0 0.0
2014-Jul-15 00:31N 59°56' E 030°17'0 0.0
2014-Jul-14 23:31N 59°56' E 030°17'0 0.0
2014-Jul-14 22:31N 59°56' E 030°17'0 0.0
2014-Jul-14 21:33N 59°56' E 030°17'0 0.0
2014-Jul-14 20:33N 59°56' E 030°17'0 0.0
2014-Jul-14 19:33N 59°56' E 030°17'0 0.0
2014-Jul-14 18:33N 59°56' E 030°17'0 0.0
2014-Jul-14 17:33N 59°56' E 030°17'0 0.0
2014-Jul-14 16:33N 59°56' E 030°17'0 0.0
2014-Jul-14 15:30N 59°56' E 030°17'0 0.0
2014-Jul-14 14:30N 59°56' E 030°17'0 0.0
2014-Jul-14 13:30N 59°56' E 030°17'0 0.0
2014-Jul-14 12:33N 59°56' E 030°17'0 0.0
2014-Jul-14 11:33N 59°56' E 030°17'0 0.0
2014-Jul-14 10:33N 59°56' E 030°17'0 0.0
2014-Jul-14 09:30N 59°56' E 030°17'0 0.0
2014-Jul-14 08:30N 59°56' E 030°17'0 0.0
2014-Jul-14 07:33N 59°56' E 030°17'0 0.0
2014-Jul-14 06:33N 59°56' E 030°17'0 0.0
2014-Jul-14 05:33N 59°56' E 030°17'0 0.0
2014-Jul-14 04:33N 59°56' E 030°17'0 0.0
2014-Jul-14 03:33N 59°56' E 030°17'0 0.0
2014-Jul-14 02:33N 59°56' E 030°17'0 0.0
2014-Jul-14 01:33N 59°56' E 030°17'0 0.0
2014-Jul-14 00:33N 59°56' E 030°17'0 0.0
2014-Jul-13 23:33N 59°56' E 030°17'0 0.0
2014-Jul-13 22:33N 59°56' E 030°17'0 0.0
2014-Jul-13 21:33N 59°56' E 030°17'0 0.0
2014-Jul-13 20:33N 59°56' E 030°17'0 0.0
2014-Jul-13 19:33N 59°56' E 030°17'0 0.0
2014-Jul-13 18:33N 59°56' E 030°17'0 0.0
2014-Jul-13 17:33N 59°56' E 030°17'0 0.0
2014-Jul-13 16:33N 59°56' E 030°17'0 0.0
2014-Jul-13 15:33N 59°56' E 030°17'0 0.0
2014-Jul-13 14:33N 59°56' E 030°17'0 0.0
2014-Jul-13 13:33N 59°56' E 030°17'0 0.0
2014-Jul-13 12:33N 59°56' E 030°17'0 0.0
2014-Jul-13 11:30N 59°56' E 030°17'0 0.0
2014-Jul-13 10:33N 59°56' E 030°17'0 0.0
2014-Jul-13 09:29N 59°56' E 030°17'0 0.0
2014-Jul-13 08:32N 59°56' E 030°17'  
Track history (hours):
 
Tides and Currents Weather Stations Pressure Air Temp Water Temp Dewpoint Dewpoint Depression Visibility Wind Speed Wind Dir Waves Ship Positions

Christina O

Operator: V Ships Leisure SAM

Last reported at 2014-Jul-23 07:33 UTC. Time now 2014-Jul-23 07:48 UTC.
Position N 59°56' E 030°16'.

Length 186 m; draft 6.1 m.

Type: Ship. MMSI: 308322000.

Date/timePositionNaut miles runAvg speedWind from/ knotsBaromVisibWave heightAir tempDewpointWater temp
2014-Jul-23 07:33N 59°56' E 030°16'0 0.0
2014-Jul-23 06:33N 59°56' E 030°16'0 0.0
2014-Jul-23 05:24N 59°56' E 030°16'0 0.0
2014-Jul-23 04:33N 59°56' E 030°16'0 0.0
2014-Jul-23 03:33N 59°56' E 030°16'0 0.0
2014-Jul-23 02:33N 59°56' E 030°16'0 0.0
2014-Jul-23 01:33N 59°56' E 030°16'0 0.0
2014-Jul-23 00:30N 59°56' E 030°16'0 0.0
2014-Jul-22 23:33N 59°56' E 030°16'0 0.0
2014-Jul-22 22:33N 59°56' E 030°16'0 0.0
2014-Jul-22 21:33N 59°56' E 030°16'0 0.0
2014-Jul-22 20:33N 59°56' E 030°16'0 0.0
2014-Jul-22 19:30N 59°56' E 030°16'0 0.0
2014-Jul-22 18:33N 59°56' E 030°16'0 0.0
2014-Jul-22 17:33N 59°56' E 030°16'0 0.0
2014-Jul-22 16:33N 59°56' E 030°16'0 0.0
2014-Jul-22 15:33N 59°56' E 030°16'0 0.0
2014-Jul-22 14:33N 59°56' E 030°16'0 0.0
2014-Jul-22 13:33N 59°56' E 030°16'0 0.0
2014-Jul-22 12:33N 59°56' E 030°16'0 0.0
2014-Jul-22 11:33N 59°56' E 030°16'0 0.0
2014-Jul-22 10:33N 59°56' E 030°16'0 0.0
2014-Jul-22 09:33N 59°56' E 030°16'0 0.0
2014-Jul-22 08:33N 59°56' E 030°16'0 0.0
2014-Jul-22 07:33N 59°56' E 030°16'0 0.0
2014-Jul-22 06:32N 59°56' E 030°16'0 0.0
2014-Jul-22 05:32N 59°56' E 030°16'0 0.0
2014-Jul-22 04:32N 59°56' E 030°16'1 1.1
2014-Jul-22 03:33N 59°55' E 030°15'6 5.7
2014-Jul-22 02:31N 59°55' E 030°04'7414.1
2014-Jul-21 21:16N 60°08' E 027°38'1216.9
2014-Jul-21 20:33N 60°02' E 027°18'416.6
2014-Jul-21 20:18N 59°60' E 027°11'1216.0
2014-Jul-21 19:33N 59°59' E 026°47'1817.0
2014-Jul-21 18:31N 59°56' E 026°12'1917.0
2014-Jul-21 17:23N 59°51' E 025°35'3217.1
2014-Jul-21 15:32N 59°45' E 024°33'1717.1
2014-Jul-21 14:32N 59°40' E 024°01'1616.6
2014-Jul-21 13:33N 59°34' E 023°31'1616.5
2014-Jul-21 12:33N 59°29' E 023°00'1616.4
2014-Jul-21 11:33N 59°22' E 022°31'1716.6
2014-Jul-21 10:33N 59°12' E 022°05'1616.3
2014-Jul-21 09:33N 58°60' E 021°43'1716.5
2014-Jul-21 08:33N 58°45' E 021°32'1716.9
2014-Jul-21 07:33N 58°29' E 021°21'1716.9
2014-Jul-21 06:33N 58°13' E 021°09'5516.8
2014-Jul-21 03:18N 57°22' E 020°35'6517.2
2014-Jul-20 23:33N 56°20' E 019°57'2617.0
2014-Jul-20 22:03N 55°56' E 019°43'1316.8
2014-Jul-20 21:18N 55°44' E 019°36'1216.7
2014-Jul-20 20:33N 55°32' E 019°28'1716.7
2014-Jul-20 19:33N 55°17' E 019°19'1716.9
2014-Jul-20 18:33N 55°00' E 019°10'1716.9
2014-Jul-20 17:33N 54°44' E 019°00'1616.4
2014-Jul-20 16:33N 54°30' E 018°46'7 6.6
2014-Jul-20 15:31N 54°24' E 018°40'0 0.0
2014-Jul-20 14:31N 54°24' E 018°40'0 0.0
2014-Jul-20 13:31N 54°24' E 018°40'0 0.0
2014-Jul-20 12:31N 54°24' E 018°40'0 0.0
2014-Jul-20 11:31N 54°24' E 018°40'0 0.0
2014-Jul-20 10:28N 54°24' E 018°40'0 0.0
2014-Jul-20 09:31N 54°24' E 018°40'0 0.0
2014-Jul-20 08:31N 54°24' E 018°40'0 0.0
2014-Jul-20 07:28N 54°24' E 018°40'0 0.0
2014-Jul-20 06:31N 54°24' E 018°40'1 1.5
2014-Jul-20 05:34N 54°23' E 018°40'5 4.8
2014-Jul-20 04:34N 54°28' E 018°41'0 0.1
2014-Jul-20 03:31N 54°28' E 018°41'0 0.0
2014-Jul-20 02:31N 54°28' E 018°41'0 0.0
2014-Jul-20 01:31N 54°28' E 018°41'0 0.0
2014-Jul-20 00:31N 54°28' E 018°41'0 0.0
2014-Jul-19 23:31N 54°28' E 018°41'0 0.0
2014-Jul-19 22:31N 54°28' E 018°41'0 0.0
2014-Jul-19 21:31N 54°28' E 018°41'0 0.0
2014-Jul-19 20:31N 54°28' E 018°41'0 0.0
2014-Jul-19 19:31N 54°28' E 018°41'5 4.8
2014-Jul-19 18:33N 54°31' E 018°46'1110.7
2014-Jul-19 17:33N 54°40' E 018°56'9 9.4
2014-Jul-19 16:33N 54°49' E 018°52'1212.1
2014-Jul-19 15:33N 54°56' E 018°35'1413.7
2014-Jul-19 14:33N 54°55' E 018°11'1413.8
2014-Jul-19 13:33N 54°54' E 017°47'1313.4
2014-Jul-19 12:33N 54°53' E 017°24'1313.2
2014-Jul-19 11:33N 54°50' E 017°01'1313.3
2014-Jul-19 10:33N 54°47' E 016°39'1413.4
2014-Jul-19 09:32N 54°45' E 016°15'1313.4
2014-Jul-19 08:33N 54°43' E 015°53'1413.5
2014-Jul-19 07:33N 54°41' E 015°30'1413.6
2014-Jul-19 06:33N 54°39' E 015°06'1313.5
2014-Jul-19 05:33N 54°37' E 014°43'1313.2
2014-Jul-19 04:33N 54°37' E 014°21'1413.5
2014-Jul-19 03:33N 54°41' E 013°58'1313.4
2014-Jul-19 02:33N 54°45' E 013°36'1313.2
2014-Jul-19 01:33N 54°44' E 013°13'1313.4
2014-Jul-19 00:34N 54°41' E 012°50'1313.4
2014-Jul-18 23:34N 54°38' E 012°28'1312.9
2014-Jul-18 22:34N 54°28' E 012°15'1413.9
2014-Jul-18 21:33N 54°15' E 012°05'5 4.9
2014-Jul-18 20:31N 54°10' E 012°06'0 0.0
2014-Jul-18 19:31N 54°10' E 012°06'0 0.0
2014-Jul-18 18:31N 54°10' E 012°06'0 0.0
2014-Jul-18 17:31N 54°10' E 012°06'0 0.0
2014-Jul-18 16:33N 54°10' E 012°06'8 7.8
2014-Jul-18 15:33N 54°18' E 012°00'1212.1
2014-Jul-18 14:33N 54°28' E 012°10'1515.2
2014-Jul-18 13:33N 54°42' E 012°22'1615.5
2014-Jul-18 12:33N 54°54' E 012°40'1515.3
2014-Jul-18 11:33N 55°09' E 012°39'1515.1
2014-Jul-18 10:34N 55°24' E 012°40'1313.2
2014-Jul-18 09:33N 55°37' E 012°42'6 5.9
2014-Jul-18 08:33N 55°42' E 012°36'0 0.0
2014-Jul-18 07:31N 55°42' E 012°36'0 0.0
2014-Jul-18 06:31N 55°42' E 012°36'0 0.0
2014-Jul-18 05:31N 55°42' E 012°36'0 0.1
2014-Jul-18 04:33N 55°42' E 012°36'6 5.6
2014-Jul-18 03:33N 55°37' E 012°42'1313.5
2014-Jul-18 02:34N 55°24' E 012°41'1211.8
2014-Jul-18 01:33N 55°16' E 012°57'1514.6
2014-Jul-18 00:34N 55°15' E 013°22'1514.7
2014-Jul-17 23:34N 55°14' E 013°48'1514.8
2014-Jul-17 22:33N 55°14' E 014°14'1514.6
2014-Jul-17 21:33N 55°25' E 014°31'1414.4
2014-Jul-17 20:33N 55°33' E 014°52'1414.4
2014-Jul-17 19:34N 55°40' E 015°14'1514.6
2014-Jul-17 18:33N 55°47' E 015°37'1514.7
2014-Jul-17 17:34N 55°55' E 015°59'1514.7
2014-Jul-17 16:34N 56°02' E 016°22'6514.5
2014-Jul-17 12:05N 56°40' E 017°56'2314.5
2014-Jul-17 10:29N 56°55' E 018°29'1714.5
2014-Jul-17 09:18N 57°09' E 018°48'1314.6
2014-Jul-17 08:25N 57°19' E 019°02'1314.5
2014-Jul-17 07:33N 57°29' E 019°16'1414.4
2014-Jul-17 06:33N 57°40' E 019°33'1414.5
2014-Jul-17 05:33N 57°52' E 019°49'14614.5
2014-Jul-16 19:29N 59°36' E 023°07'1414.6
2014-Jul-16 18:33N 59°40' E 023°32'1514.8
2014-Jul-16 17:33N 59°44' E 024°00'1514.6
2014-Jul-16 16:31N 59°49' E 024°29'1514.7
2014-Jul-16 15:29N 59°59' E 024°52'1112.3
2014-Jul-16 14:33N 60°10' E 024°58'0 0.4
2014-Jul-16 13:31N 60°10' E 024°58'0 0.0
2014-Jul-16 12:28N 60°10' E 024°58'0 0.0
2014-Jul-16 11:28N 60°10' E 024°58'0 0.0
2014-Jul-16 10:31N 60°10' E 024°58'0 0.0
2014-Jul-16 09:34N 60°10' E 024°58'0 0.0
2014-Jul-16 08:34N 60°10' E 024°58'0 0.0
2014-Jul-16 07:33N 60°10' E 024°58'0 0.0
2014-Jul-16 06:33N 60°10' E 024°58'0 0.0
2014-Jul-16 05:33N 60°10' E 024°58'0 0.1
2014-Jul-16 04:33N 60°10' E 024°58'8 8.1
2014-Jul-16 03:33N 60°02' E 024°58'1212.1
2014-Jul-16 02:32N 59°57' E 025°20'1612.8
2014-Jul-16 01:19N 59°56' E 025°52'1013.4
2014-Jul-16 00:33N 59°59' E 026°11'1313.5
2014-Jul-15 23:34N 60°01' E 026°38'1513.1
2014-Jul-15 22:24N 60°01' E 027°08'1213.7
2014-Jul-15 21:34N 60°07' E 027°28'1313.2
2014-Jul-15 20:33N 60°11' E 027°53'6813.0
2014-Jul-15 15:20N 59°54' E 030°05'5 6.3
2014-Jul-15 14:33N 59°55' E 030°14'2 1.8
2014-Jul-15 13:31N 59°56' E 030°17'0 0.0
2014-Jul-15 12:31N 59°56' E 030°17'0 0.0
2014-Jul-15 11:31N 59°56' E 030°17'0 0.0
2014-Jul-15 10:31N 59°56' E 030°17'0 0.0
2014-Jul-15 09:31N 59°56' E 030°17'0 0.0
2014-Jul-15 08:31N 59°56' E 030°17'0 0.0
2014-Jul-15 07:31N 59°56' E 030°17'0 0.0
2014-Jul-15 06:31N 59°56' E 030°17'0 0.0
2014-Jul-15 05:31N 59°56' E 030°17'0 0.0
2014-Jul-15 04:31N 59°56' E 030°17'0 0.0
2014-Jul-15 03:28N 59°56' E 030°17'0 0.0
2014-Jul-15 02:31N 59°56' E 030°17'0 0.0
2014-Jul-15 01:31N 59°56' E 030°17'0 0.0
2014-Jul-15 00:31N 59°56' E 030°17'0 0.0
2014-Jul-14 23:31N 59°56' E 030°17'0 0.0
2014-Jul-14 22:31N 59°56' E 030°17'0 0.0
2014-Jul-14 21:33N 59°56' E 030°17'0 0.0
2014-Jul-14 20:33N 59°56' E 030°17'0 0.0
2014-Jul-14 19:33N 59°56' E 030°17'0 0.0
2014-Jul-14 18:33N 59°56' E 030°17'0 0.0
2014-Jul-14 17:33N 59°56' E 030°17'0 0.0
2014-Jul-14 16:33N 59°56' E 030°17'0 0.0
2014-Jul-14 15:30N 59°56' E 030°17'0 0.0
2014-Jul-14 14:30N 59°56' E 030°17'0 0.0
2014-Jul-14 13:30N 59°56' E 030°17'0 0.0
2014-Jul-14 12:33N 59°56' E 030°17'0 0.0
2014-Jul-14 11:33N 59°56' E 030°17'0 0.0
2014-Jul-14 10:33N 59°56' E 030°17'0 0.0
2014-Jul-14 09:30N 59°56' E 030°17'0 0.0
2014-Jul-14 08:30N 59°56' E 030°17'0 0.0
2014-Jul-14 07:33N 59°56' E 030°17'0 0.0
2014-Jul-14 06:33N 59°56' E 030°17'0 0.0
2014-Jul-14 05:33N 59°56' E 030°17'0 0.0
2014-Jul-14 04:33N 59°56' E 030°17'0 0.0
2014-Jul-14 03:33N 59°56' E 030°17'0 0.0
2014-Jul-14 02:33N 59°56' E 030°17'0 0.0
2014-Jul-14 01:33N 59°56' E 030°17'0 0.0
2014-Jul-14 00:33N 59°56' E 030°17'0 0.0
2014-Jul-13 23:33N 59°56' E 030°17'0 0.0
2014-Jul-13 22:33N 59°56' E 030°17'0 0.0
2014-Jul-13 21:33N 59°56' E 030°17'0 0.0
2014-Jul-13 20:33N 59°56' E 030°17'0 0.0
2014-Jul-13 19:33N 59°56' E 030°17'0 0.0
2014-Jul-13 18:33N 59°56' E 030°17'0 0.0
2014-Jul-13 17:33N 59°56' E 030°17'0 0.0
2014-Jul-13 16:33N 59°56' E 030°17'0 0.0
2014-Jul-13 15:33N 59°56' E 030°17'0 0.0
2014-Jul-13 14:33N 59°56' E 030°17'0 0.0
2014-Jul-13 13:33N 59°56' E 030°17'0 0.0
2014-Jul-13 12:33N 59°56' E 030°17'0 0.0
2014-Jul-13 11:30N 59°56' E 030°17'0 0.0
2014-Jul-13 10:33N 59°56' E 030°17'0 0.0
2014-Jul-13 09:29N 59°56' E 030°17'0 0.0
2014-Jul-13 08:32N 59°56' E 030°17'  

Dump ship's entire track history